Time;durP1;ratioP1;P1;durP2;ratioP2;P2;SDS_P1;SDS_P2;PMS_P1;PMS_P2;Temp;Humidity;BMP_temperature;BMP_pressure;BME280_temperature;BME280_humidity;BME280_pressure;Samples;Min_cycle;Max_cycle;Signal;HPM_P1;HPM_P2
2023/06/21 00:01:06;;;;;;;11.50;9.98;;;;;;;18.82;100.00;101071.31;5051631;28;20488;-76
2023/06/21 00:03:33;;;;;;;11.45;9.80;;;;;;;18.78;100.00;101076.84;5046968;28;20923;-76
2023/06/21 00:06:00;;;;;;;11.57;9.90;;;;;;;18.77;100.00;101079.63;5036132;28;20042;-75
2023/06/21 00:08:27;;;;;;;10.07;8.80;;;;;;;18.74;100.00;101064.59;5048979;28;20081;-75
2023/06/21 00:10:54;;;;;;;11.10;10.00;;;;;;;18.71;100.00;101062.16;5047328;28;20042;-77
2023/06/21 00:13:21;;;;;;;10.43;9.25;;;;;;;18.68;100.00;101066.78;5047352;28;20048;-76
2023/06/21 00:15:50;;;;;;;12.20;10.13;;;;;;;18.66;100.00;101060.72;5045545;28;20037;-76
2023/06/21 00:18:17;;;;;;;11.57;9.90;;;;;;;18.62;100.00;101055.56;5049374;28;20535;-76
2023/06/21 00:20:46;;;;;;;11.30;9.10;;;;;;;18.63;100.00;101065.28;5046580;28;20495;-76
2023/06/21 00:23:14;;;;;;;9.82;8.80;;;;;;;18.62;100.00;101071.56;5046961;28;20056;-77
2023/06/21 00:25:41;;;;;;;10.98;9.55;;;;;;;18.62;100.00;101081.38;5046558;28;20491;-75
2023/06/21 00:28:08;;;;;;;12.02;9.43;;;;;;;18.61;100.00;101087.69;5047148;28;20053;-75
2023/06/21 00:30:35;;;;;;;12.38;9.63;;;;;;;18.60;100.00;101078.81;5029773;28;20050;-74
2023/06/21 00:33:03;;;;;;;12.45;10.23;;;;;;;18.59;100.00;101082.41;5029438;28;20108;-75
2023/06/21 00:35:30;;;;;;;12.05;10.50;;;;;;;18.57;100.00;101078.97;5047746;28;20484;-74
2023/06/21 00:37:57;;;;;;;11.73;10.05;;;;;;;18.55;100.00;101090.72;5046282;28;20560;-75
2023/06/21 00:40:25;;;;;;;14.07;10.85;;;;;;;18.53;100.00;101090.81;5044583;28;20052;-74
2023/06/21 00:43:03;;;;;;;14.52;11.27;;;;;;;18.51;100.00;101090.03;5039823;28;20045;-75
2023/06/21 00:45:39;;;;;;;15.23;12.07;;;;;;;18.49;100.00;101086.59;5029804;28;20618;-74
2023/06/21 00:48:06;;;;;;;12.85;11.40;;;;;;;18.49;100.00;101088.41;5047374;28;20140;-74
2023/06/21 00:50:34;;;;;;;16.73;12.18;;;;;;;18.44;100.00;101089.53;5029692;28;20042;-75
2023/06/21 00:53:01;;;;;;;16.58;10.75;;;;;;;18.43;100.00;101092.31;5046042;28;20115;-75
2023/06/21 00:55:28;;;;;;;13.00;11.57;;;;;;;18.42;100.00;101090.59;5045181;28;20057;-75
2023/06/21 00:57:57;;;;;;;13.57;11.40;;;;;;;18.42;100.00;101095.94;5046655;28;20859;-75
2023/06/21 01:00:25;;;;;;;13.98;10.65;;;;;;;18.41;100.00;101096.88;5052555;28;20060;-74
2023/06/21 01:02:54;;;;;;;12.25;10.95;;;;;;;18.42;100.00;101102.13;5044250;28;20050;-75
2023/06/21 01:05:25;;;;;;;10.63;9.52;;;;;;;18.42;100.00;101101.28;5026303;28;20521;-74
2023/06/21 01:08:11;;;;;;;12.60;10.15;;;;;;;18.46;100.00;101105.50;5046559;28;20101;-74
2023/06/21 01:11:09;;;;;;;12.02;9.88;;;;;;;18.47;100.00;101097.38;5044810;28;20041;-75
2023/06/21 01:14:05;;;;;;;11.52;9.98;;;;;;;18.46;100.00;101105.50;5042295;28;20046;-75
2023/06/21 01:16:42;;;;;;;13.10;10.00;;;;;;;18.47;100.00;101110.72;5046589;28;20061;-75
2023/06/21 01:19:47;;;;;;;10.05;9.05;;;;;;;18.46;100.00;101117.00;5046825;28;20044;-76
2023/06/21 01:22:20;;;;;;;13.90;10.15;;;;;;;18.44;100.00;101121.56;5040439;28;20038;-75
2023/06/21 01:25:27;;;;;;;11.85;10.45;;;;;;;18.42;100.00;101125.28;5045684;28;20096;-76
2023/06/21 01:28:27;;;;;;;12.30;10.25;;;;;;;18.43;100.00;101119.84;5029466;28;20049;-76
2023/06/21 01:30:57;;;;;;;11.50;10.05;;;;;;;18.43;100.00;101127.00;5046366;28;20046;-75
2023/06/21 01:33:31;;;;;;;11.60;10.35;;;;;;;18.42;100.00;101119.94;5046239;28;20049;-76
2023/06/21 01:36:03;;;;;;;13.25;9.95;;;;;;;18.39;100.00;101118.34;5029855;28;20487;-74
2023/06/21 01:38:30;;;;;;;12.25;10.65;;;;;;;18.37;100.00;101117.56;5045557;28;20048;-74
2023/06/21 01:40:58;;;;;;;12.45;10.48;;;;;;;18.36;100.00;101115.84;5044474;28;20050;-75
2023/06/21 01:43:25;;;;;;;11.63;10.23;;;;;;;18.32;100.00;101127.63;5029633;28;20042;-75
2023/06/21 01:45:54;;;;;;;11.80;10.18;;;;;;;18.31;100.00;101120.59;5046788;28;20042;-75
2023/06/21 01:48:22;;;;;;;11.70;10.02;;;;;;;18.29;100.00;101122.50;5028129;28;20777;-74
2023/06/21 01:50:51;;;;;;;11.70;10.50;;;;;;;18.28;100.00;101126.94;5027362;28;20045;-75
2023/06/21 01:53:33;;;;;;;12.27;10.77;;;;;;;18.28;100.00;101132.28;5044850;28;20552;-74
2023/06/21 01:56:08;;;;;;;11.95;10.23;;;;;;;18.31;100.00;101144.63;5044608;28;20045;-75
2023/06/21 01:58:35;;;;;;;12.73;9.93;;;;;;;18.28;100.00;101142.13;5043445;28;20517;-75
2023/06/21 02:01:04;;;;;;;12.68;11.13;;;;;;;18.26;100.00;101136.84;5031887;28;20096;-75
2023/06/21 02:03:33;;;;;;;14.57;10.88;;;;;;;18.23;100.00;101142.38;5044667;28;20050;-74
2023/06/21 02:06:05;;;;;;;13.57;11.07;;;;;;;18.21;100.00;101140.75;5043303;28;20049;-74
2023/06/21 02:08:34;;;;;;;13.60;11.07;;;;;;;18.19;100.00;101130.16;5044327;28;20041;-74
2023/06/21 02:11:01;;;;;;;13.15;10.68;;;;;;;18.16;100.00;101130.34;5036099;28;20139;-75
2023/06/21 02:13:29;;;;;;;13.38;11.02;;;;;;;18.13;100.00;101136.69;5044918;28;20045;-72
2023/06/21 02:15:56;;;;;;;14.65;11.35;;;;;;;18.12;100.00;101144.81;5046396;28;20057;-75
2023/06/21 02:18:24;;;;;;;13.15;11.23;;;;;;;18.10;100.00;101136.03;5027617;28;20112;-74
2023/06/21 02:20:52;;;;;;;13.35;11.38;;;;;;;18.08;100.00;101141.47;5044346;28;20521;-74
2023/06/21 02:23:19;;;;;;;12.50;11.05;;;;;;;18.06;100.00;101146.00;5042704;28;20048;-75
2023/06/21 02:25:46;;;;;;;13.32;11.20;;;;;;;18.05;100.00;101146.97;5046402;28;20049;-75
2023/06/21 02:28:16;;;;;;;13.52;11.77;;;;;;;18.03;100.00;101159.50;5047320;28;20071;-75
2023/06/21 02:30:44;;;;;;;15.52;11.80;;;;;;;18.03;100.00;101156.00;5044624;28;20045;-76
2023/06/21 02:33:11;;;;;;;15.82;12.13;;;;;;;18.01;100.00;101158.75;5047052;28;20045;-75
2023/06/21 02:35:38;;;;;;;12.45;11.10;;;;;;;17.99;100.00;101166.00;5044446;28;20454;-76
2023/06/21 02:38:06;;;;;;;13.48;11.88;;;;;;;17.98;100.00;101175.78;5026031;28;20513;-76
2023/06/21 02:40:33;;;;;;;12.98;11.65;;;;;;;17.95;100.00;101181.28;5027499;28;20096;-76
2023/06/21 02:43:00;;;;;;;15.20;11.98;;;;;;;17.96;100.00;101190.13;5046346;28;20140;-76
2023/06/21 02:45:27;;;;;;;14.40;12.20;;;;;;;17.95;100.00;101181.28;5026995;28;20056;-75
2023/06/21 02:47:55;;;;;;;13.50;12.10;;;;;;;17.94;100.00;101179.56;5043560;28;20056;-75
2023/06/21 02:50:22;;;;;;;13.93;12.05;;;;;;;17.94;100.00;101187.56;5044661;28;20124;-78
2023/06/21 02:52:49;;;;;;;14.18;12.15;;;;;;;17.92;100.00;101197.44;5044742;28;20048;-76
2023/06/21 02:55:17;;;;;;;15.13;13.52;;;;;;;17.92;100.00;101200.09;5045949;28;20053;-77
2023/06/21 02:57:44;;;;;;;15.88;12.70;;;;;;;17.94;100.00;101206.22;5027563;28;20452;-76
2023/06/21 03:00:22;;;;;;;15.82;12.50;;;;;;;17.96;100.00;101196.34;5028520;28;20049;-76
2023/06/21 03:02:50;;;;;;;14.65;12.75;;;;;;;17.96;100.00;101204.34;5026987;28;20516;-76
2023/06/21 03:05:18;;;;;;;14.95;13.10;;;;;;;17.97;100.00;101191.88;5045677;28;20041;-75
2023/06/21 03:07:46;;;;;;;14.10;12.57;;;;;;;17.95;100.00;101202.63;5026438;28;20053;-75
2023/06/21 03:10:14;;;;;;;18.75;13.95;;;;;;;17.94;100.00;101203.56;5044905;28;20061;-76
2023/06/21 03:12:43;;;;;;;15.18;12.18;;;;;;;17.92;100.00;101200.09;5045246;28;20045;-75
2023/06/21 03:15:15;;;;;;;15.30;13.43;;;;;;;17.91;100.00;101205.50;5026770;28;20049;-76
2023/06/21 03:17:43;;;;;;;13.40;11.77;;;;;;;17.91;100.00;101211.72;5028316;28;20057;-75
2023/06/21 03:20:14;;;;;;;14.77;12.90;;;;;;;17.92;100.00;101212.56;5026618;28;20049;-75
2023/06/21 03:22:44;;;;;;;13.90;12.18;;;;;;;17.91;100.00;101221.50;5037109;28;20049;-79
2023/06/21 03:25:14;;;;;;;15.43;13.27;;;;;;;17.93;100.00;101232.97;5030916;28;20129;-76
2023/06/21 03:27:43;;;;;;;14.70;13.20;;;;;;;17.92;100.00;101226.78;5029647;28;20053;-76
2023/06/21 03:30:12;;;;;;;17.45;13.02;;;;;;;17.93;100.00;101233.84;5030523;28;20139;-74
2023/06/21 03:32:46;;;;;;;17.83;13.13;;;;;;;17.94;100.00;101240.91;5017578;28;20049;-74
2023/06/21 03:35:18;;;;;;;17.40;13.15;;;;;;;17.97;100.00;101239.91;5031430;28;20044;-74
2023/06/21 03:37:47;;;;;;;15.40;12.15;;;;;;;17.98;100.00;101245.13;5027330;28;20120;-74
2023/06/21 03:40:20;;;;;;;15.15;13.00;;;;;;;17.98;100.00;101250.47;5025515;28;20445;-74
2023/06/21 03:42:48;;;;;;;16.75;13.43;;;;;;;17.99;100.00;101246.00;5043716;28;20491;-74
2023/06/21 03:45:15;;;;;;;15.75;13.52;;;;;;;18.02;100.00;101248.47;5047597;28;20140;-74
2023/06/21 03:47:47;;;;;;;15.55;12.55;;;;;;;18.03;100.00;101252.88;5030585;28;20057;-74
2023/06/21 03:50:14;;;;;;;16.13;13.15;;;;;;;18.07;100.00;101253.56;5047966;28;20044;-73
2023/06/21 03:52:45;;;;;;;17.23;13.43;;;;;;;18.13;100.00;101262.09;5030664;28;20042;-73
2023/06/21 03:55:12;;;;;;;17.17;14.02;;;;;;;18.19;100.00;101260.03;5030113;28;20050;-74
2023/06/21 03:57:39;;;;;;;16.33;12.73;;;;;;;18.24;100.00;101260.63;5033527;28;20057;-74
2023/06/21 04:00:09;;;;;;;14.88;13.02;;;;;;;18.26;100.00;101262.25;5056697;28;20520;-78
2023/06/21 04:02:46;;;;;;;14.23;12.73;;;;;;;18.30;100.00;101263.81;5030839;28;20041;-76
2023/06/21 04:05:14;;;;;;;17.42;13.88;;;;;;;18.34;100.00;101259.16;5051276;28;20045;-74
2023/06/21 04:07:41;;;;;;;15.88;13.65;;;;;;;18.39;100.00;101254.44;5037440;28;20045;-74
2023/06/21 04:10:10;;;;;;;16.95;13.63;;;;;;;18.48;100.00;101263.72;5039481;28;20507;-73
2023/06/21 04:12:37;;;;;;;16.88;13.75;;;;;;;18.55;100.00;101256.22;5034881;28;20072;-77
2023/06/21 04:15:05;;;;;;;18.05;14.27;;;;;;;18.60;100.00;101257.69;5038572;28;20054;-75
2023/06/21 04:17:36;;;;;;;15.15;12.35;;;;;;;18.67;100.00;101246.66;5056576;28;20053;-74
2023/06/21 04:20:10;;;;;;;18.05;13.70;;;;;;;18.73;100.00;101248.97;5048186;28;20076;-74
2023/06/21 04:22:40;;;;;;;17.83;13.75;;;;;;;18.77;100.00;101250.53;5032086;28;20119;-75
2023/06/21 04:25:09;;;;;;;22.25;14.77;;;;;;;18.82;100.00;101240.41;5045864;28;20041;-75
2023/06/21 04:27:39;;;;;;;18.95;13.48;;;;;;;18.87;100.00;101250.81;5028195;28;20488;-75
2023/06/21 04:30:11;;;;;;;22.13;14.18;;;;;;;18.97;100.00;101262.72;5031486;28;20488;-77
2023/06/21 04:32:45;;;;;;;21.50;14.55;;;;;;;19.03;100.00;101259.66;5054097;28;20064;-76
2023/06/21 04:35:16;;;;;;;22.52;14.88;;;;;;;19.08;100.00;101264.75;5056911;28;20053;-77
2023/06/21 04:37:46;;;;;;;20.63;14.32;;;;;;;19.13;100.00;101273.34;5049879;28;20516;-70
2023/06/21 04:40:19;;;;;;;16.42;13.75;;;;;;;19.19;100.00;101272.97;5051514;28;20084;-76
2023/06/21 04:42:54;;;;;;;29.08;16.02;;;;;;;19.30;100.00;101272.34;5051111;28;20049;-75
2023/06/21 04:45:22;;;;;;;34.42;16.42;;;;;;;19.40;100.00;101277.97;5052839;28;20037;-75
2023/06/21 04:47:49;;;;;;;34.83;16.00;;;;;;;19.49;100.00;101277.41;5057945;28;20136;-76
2023/06/21 04:50:19;;;;;;;32.63;15.73;;;;;;;19.61;100.00;101283.84;5056439;28;20045;-76
2023/06/21 04:52:57;;;;;;;27.00;14.43;;;;;;;19.67;100.00;101285.28;5039478;28;20674;-75
2023/06/21 04:55:26;;;;;;;21.15;15.13;;;;;;;19.72;100.00;101288.53;5045825;28;20497;-76
2023/06/21 04:57:55;;;;;;;19.33;14.55;;;;;;;19.73;100.00;101290.25;5041185;28;20044;-76
2023/06/21 05:00:22;;;;;;;17.63;14.82;;;;;;;19.79;100.00;101289.00;5048120;28;20076;-75
2023/06/21 05:02:49;;;;;;;23.38;14.88;;;;;;;19.87;100.00;101292.09;5052347;28;20052;-76
2023/06/21 05:05:17;;;;;;;18.88;14.25;;;;;;;19.99;99.04;101293.16;5055325;28;20045;-76
2023/06/21 05:07:44;;;;;;;18.92;13.48;;;;;;;20.07;98.58;101300.69;5048322;28;20037;-76
2023/06/21 05:10:11;;;;;;;20.70;15.35;;;;;;;20.15;98.24;101304.59;5046350;28;20137;-75
2023/06/21 05:12:38;;;;;;;18.65;15.05;;;;;;;20.22;98.41;101305.06;5058036;28;20113;-75
2023/06/21 05:15:06;;;;;;;22.63;15.40;;;;;;;20.37;97.07;101305.03;5061642;28;20049;-75
2023/06/21 05:17:34;;;;;;;17.38;13.85;;;;;;;20.52;96.84;101309.41;5044845;28;20074;-75
2023/06/21 05:20:04;;;;;;;18.05;14.50;;;;;;;20.76;96.41;101309.66;5061412;28;20044;-75
2023/06/21 05:22:31;;;;;;;17.27;14.85;;;;;;;21.25;94.40;101313.53;5045555;28;20054;-74
2023/06/21 05:25:01;;;;;;;24.27;15.30;;;;;;;21.59;92.28;101321.09;5033175;28;20141;-74
2023/06/21 05:27:30;;;;;;;16.10;12.63;;;;;;;21.86;91.65;101315.63;5045179;28;20104;-75
2023/06/21 05:29:57;;;;;;;17.40;13.23;;;;;;;21.88;90.91;101320.88;5040152;28;20092;-74
2023/06/21 05:32:27;;;;;;;17.10;12.77;;;;;;;21.95;89.57;101321.31;5045535;28;20042;-75
2023/06/21 05:34:54;;;;;;;23.08;13.57;;;;;;;22.59;88.70;101323.88;5040565;28;20045;-75
2023/06/21 05:37:22;;;;;;;17.80;14.45;;;;;;;22.32;88.21;101321.34;5053421;28;20073;-75
2023/06/21 05:39:51;;;;;;;18.33;13.95;;;;;;;22.24;87.47;101323.72;5045294;28;20042;-75
2023/06/21 05:42:18;;;;;;;19.02;13.90;;;;;;;21.94;88.38;101323.13;5047358;28;20569;-75
2023/06/21 05:44:45;;;;;;;16.63;14.75;;;;;;;22.24;87.93;101326.41;5049723;28;20091;-75
2023/06/21 05:47:14;;;;;;;19.65;14.55;;;;;;;22.13;88.95;101327.19;5065009;28;20060;-75
2023/06/21 05:49:41;;;;;;;26.38;15.48;;;;;;;22.47;87.50;101322.94;5053005;28;20487;-75
2023/06/21 05:52:08;;;;;;;21.77;16.48;;;;;;;22.45;85.64;101337.44;5052202;28;20034;-73
2023/06/21 05:54:37;;;;;;;19.75;16.58;;;;;;;22.16;86.77;101335.00;5054464;28;20575;-73
2023/06/21 05:57:05;;;;;;;20.08;16.85;;;;;;;21.99;87.94;101345.13;5054776;28;20468;-73
2023/06/21 05:59:32;;;;;;;23.80;18.27;;;;;;;21.94;88.23;101341.91;5051750;28;20466;-73
2023/06/21 06:01:59;;;;;;;20.27;17.30;;;;;;;22.22;87.16;101348.03;5044132;28;20496;-73
2023/06/21 06:04:26;;;;;;;26.02;19.98;;;;;;;22.07;88.03;101357.16;5045722;28;20798;-73
2023/06/21 06:06:53;;;;;;;26.73;20.05;;;;;;;21.83;88.77;101357.91;5046309;28;20500;-72
2023/06/21 06:09:23;;;;;;;26.05;20.88;;;;;;;21.64;89.53;101366.38;5042695;28;20049;-73
2023/06/21 06:11:50;;;;;;;25.98;20.92;;;;;;;21.35;88.10;101367.38;5047041;28;20099;-75
2023/06/21 06:14:18;;;;;;;26.17;22.63;;;;;;;21.31;89.72;101370.38;5047254;28;20038;-74
2023/06/21 06:16:45;;;;;;;26.15;22.83;;;;;;;21.89;88.70;101378.97;5055450;28;20042;-74
2023/06/21 06:19:13;;;;;;;27.38;23.85;;;;;;;21.99;87.24;101379.16;5048123;28;20045;-74
2023/06/21 06:21:41;;;;;;;26.95;23.58;;;;;;;22.44;84.66;101373.31;5046759;28;20064;-74
2023/06/21 06:24:08;;;;;;;26.35;22.10;;;;;;;22.94;84.21;101368.75;5034778;28;20049;-75
2023/06/21 06:26:36;;;;;;;28.67;23.35;;;;;;;22.82;83.04;101364.31;5060040;28;20064;-73
2023/06/21 06:29:03;;;;;;;32.70;22.92;;;;;;;22.55;84.77;101372.56;5047670;28;20052;-73
2023/06/21 06:31:30;;;;;;;26.98;23.35;;;;;;;;;;5051213;28;20092;-73
2023/06/21 06:33:58;;;;;;;26.55;21.98;;;;;;;21.84;85.98;101379.28;5048085;28;20077;-73
2023/06/21 06:36:25;;;;;;;25.50;22.42;;;;;;;21.77;86.02;101382.50;5051538;28;20041;-72
2023/06/21 06:38:52;;;;;;;26.55;22.83;;;;;;;21.74;87.08;101388.06;5027251;28;20049;-73
2023/06/21 06:41:20;;;;;;;25.70;21.55;;;;;;;21.88;86.80;101396.03;5043773;28;20124;-73
2023/06/21 06:43:47;;;;;;;24.25;20.55;;;;;;;21.91;85.69;101393.13;5051148;28;20112;-74
2023/06/21 06:46:14;;;;;;;27.05;20.58;;;;;;;21.87;85.35;101395.16;5042983;28;20037;-73
2023/06/21 06:48:41;;;;;;;24.98;20.00;;;;;;;22.01;86.40;101394.22;5046839;28;20065;-74
2023/06/21 06:51:08;;;;;;;26.00;21.02;;;;;;;21.98;87.12;101405.16;5045897;28;20034;-75
2023/06/21 06:53:35;;;;;;;24.13;19.70;;;;;;;21.87;86.63;101403.19;5046353;28;20072;-75
2023/06/21 06:56:02;;;;;;;35.42;18.92;;;;;;;21.78;86.39;101408.38;5047994;28;20045;-75
2023/06/21 06:58:30;;;;;;;21.90;18.85;;;;;;;21.77;87.53;101407.50;5049500;28;20100;-74
2023/06/21 07:00:57;;;;;;;23.55;19.00;;;;;;;21.86;86.61;101416.72;5050571;28;20141;-74
2023/06/21 07:03:24;;;;;;;22.88;17.50;;;;;;;21.97;85.25;101422.22;5045960;28;20068;-74
2023/06/21 07:05:52;;;;;;;22.95;18.13;;;;;;;21.98;85.44;101423.06;5043296;28;20053;-74
2023/06/21 07:08:19;;;;;;;19.17;17.08;;;;;;;22.02;84.59;101417.41;5041888;28;20535;-74
2023/06/21 07:10:46;;;;;;;21.83;16.85;;;;;;;22.00;83.94;101431.88;5042670;28;20524;-73
2023/06/21 07:13:13;;;;;;;21.80;16.75;;;;;;;22.05;84.65;101426.19;5043014;28;20045;-74
2023/06/21 07:15:40;;;;;;;20.88;16.70;;;;;;;22.09;82.23;101427.72;5044187;28;20045;-74
2023/06/21 07:18:07;;;;;;;17.55;15.40;;;;;;;22.07;81.75;101427.81;5044376;28;20068;-74
2023/06/21 07:20:35;;;;;;;22.88;16.20;;;;;;;22.03;82.64;101421.78;5044405;28;20041;-74
2023/06/21 07:23:03;;;;;;;19.10;15.88;;;;;;;22.09;82.86;101427.72;5041851;28;20049;-73
2023/06/21 07:25:30;;;;;;;20.65;16.23;;;;;;;22.17;81.72;101433.38;5046692;28;20068;-74
2023/06/21 07:27:57;;;;;;;22.75;17.70;;;;;;;22.18;80.47;101432.44;5046784;28;20048;-74
2023/06/21 07:30:25;;;;;;;21.00;17.65;;;;;;;22.16;80.40;101428.97;5044007;28;20125;-74
2023/06/21 07:32:52;;;;;;;21.83;17.02;;;;;;;22.18;81.52;101435.09;5045537;28;20045;-75
2023/06/21 07:35:20;;;;;;;20.50;16.80;;;;;;;22.31;80.74;101437.78;5046240;28;20069;-74
2023/06/21 07:37:47;;;;;;;24.23;17.88;;;;;;;22.55;79.90;101445.94;5045304;28;20401;-74
2023/06/21 07:40:14;;;;;;;22.95;17.38;;;;;;;22.66;78.04;101447.88;5045553;28;20149;-74
2023/06/21 07:42:42;;;;;;;19.48;15.93;;;;;;;22.73;77.28;101443.78;5065417;28;20463;-74
2023/06/21 07:45:09;;;;;;;19.40;16.00;;;;;;;22.94;78.26;101441.31;5064375;28;20052;-74
2023/06/21 07:47:36;;;;;;;19.25;15.55;;;;;;;23.19;79.18;101450.31;5059124;28;20520;-74
2023/06/21 07:50:05;;;;;;;17.50;14.55;;;;;;;23.39;78.50;101451.53;5045979;28;20644;-74
2023/06/21 07:52:49;;;;;;;18.02;14.15;;;;;;;23.51;78.09;101455.13;5045258;28;20045;-74
2023/06/21 07:55:17;;;;;;;19.58;15.25;;;;;;;23.52;76.71;101458.66;5046036;28;20049;-74
2023/06/21 07:57:44;;;;;;;19.73;14.88;;;;;;;23.51;77.24;101463.19;5043379;28;20077;-74
2023/06/21 08:00:11;;;;;;;17.55;12.98;;;;;;;23.56;76.60;101452.06;5049641;28;20469;-73
2023/06/21 08:02:46;;;;;;;16.67;13.15;;;;;;;23.62;73.67;101458.81;5035824;28;20054;-73
2023/06/21 08:05:13;;;;;;;18.33;13.30;;;;;;;23.65;73.97;101466.66;5046767;28;21217;-74
2023/06/21 08:07:42;;;;;;;18.35;14.57;;;;;;;23.79;74.07;101465.59;5047364;28;20214;-74
2023/06/21 08:10:10;;;;;;;15.45;12.00;;;;;;;23.89;73.73;101467.47;5041829;28;20498;-73
2023/06/21 08:12:37;;;;;;;17.55;12.80;;;;;;;23.95;71.43;101476.94;5046708;28;20115;-74
2023/06/21 08:15:06;;;;;;;21.95;13.30;;;;;;;24.02;73.63;101466.56;5048509;28;20064;-74
2023/06/21 08:17:33;;;;;;;22.98;13.40;;;;;;;24.22;72.96;101462.28;5030949;28;20097;-74
2023/06/21 08:20:00;;;;;;;15.55;13.80;;;;;;;24.39;73.55;101468.19;5035997;28;20412;-74
2023/06/21 08:22:27;;;;;;;15.35;12.13;;;;;;;24.52;73.03;101455.44;5045214;28;20507;-74
2023/06/21 08:24:58;;;;;;;15.43;12.18;;;;;;;24.54;69.52;101472.34;5047364;28;20066;-75
2023/06/21 08:27:25;;;;;;;15.65;12.50;;;;;;;24.43;69.24;101462.44;5047836;28;20552;-74
2023/06/21 08:29:52;;;;;;;22.92;12.93;;;;;;;24.40;67.54;101468.06;5048113;28;20187;-74
2023/06/21 08:32:19;;;;;;;16.08;10.07;;;;;;;24.39;67.95;101476.28;5048016;28;20038;-73
2023/06/21 08:34:47;;;;;;;13.35;9.93;;;;;;;24.46;67.89;101474.78;5047700;28;20042;-74
2023/06/21 08:37:14;;;;;;;18.73;10.60;;;;;;;24.55;69.50;101478.59;5047240;28;20119;-73
2023/06/21 08:39:41;;;;;;;10.38;9.00;;;;;;;24.69;66.69;101477.53;5045662;28;20056;-74
2023/06/21 08:42:08;;;;;;;12.65;9.32;;;;;;;24.73;66.12;101481.66;5026870;28;20046;-74
2023/06/21 08:44:36;;;;;;;17.95;10.30;;;;;;;24.75;66.43;101485.09;5033002;28;20057;-74
2023/06/21 08:47:06;;;;;;;11.98;9.52;;;;;;;24.87;65.05;101484.13;5028228;28;20445;-74
2023/06/21 08:49:40;;;;;;;12.30;9.02;;;;;;;24.86;63.20;101486.94;5047096;28;20069;-73
2023/06/21 08:52:13;;;;;;;9.88;7.72;;;;;;;24.70;62.09;101490.88;5046713;28;20527;-74
2023/06/21 08:54:49;;;;;;;10.13;7.43;;;;;;;24.56;62.94;101489.25;5045455;28;20573;-75
2023/06/21 08:57:22;;;;;;;11.25;10.05;;;;;;;24.70;64.06;101487.34;5047500;28;20267;-74
2023/06/21 09:00:20;;;;;;;13.27;9.10;;;;;;;24.74;63.49;101489.66;5044419;28;20057;-74
2023/06/21 09:03:08;;;;;;;9.07;7.90;;;;;;;24.81;62.84;101498.13;5046816;28;20057;-75
2023/06/21 09:05:59;;;;;;;9.15;6.50;;;;;;;24.93;61.34;101502.47;5037727;28;20061;-75
2023/06/21 09:08:26;;;;;;;14.25;7.00;;;;;;;25.01;61.37;101485.69;5046682;28;20042;-74
2023/06/21 09:10:55;;;;;;;9.50;7.78;;;;;;;25.19;59.66;101494.13;5045892;28;20440;-75
2023/06/21 09:13:24;;;;;;;8.30;6.78;;;;;;;25.34;59.95;101489.28;5046457;28;20536;-74
2023/06/21 09:15:52;;;;;;;13.13;7.18;;;;;;;25.47;59.75;101491.84;5045420;28;20558;-74
2023/06/21 09:18:20;;;;;;;12.23;6.88;;;;;;;25.57;58.04;101490.09;5043003;28;20048;-75
2023/06/21 09:20:50;;;;;;;6.63;5.93;;;;;;;25.55;59.74;101493.91;5039481;28;20103;-74
2023/06/21 09:23:17;;;;;;;7.18;6.45;;;;;;;25.56;59.45;101499.16;5043599;28;20045;-74
2023/06/21 09:25:44;;;;;;;10.10;7.13;;;;;;;25.64;57.20;101498.53;5027385;28;20052;-74
2023/06/21 09:28:12;;;;;;;14.18;6.78;;;;;;;25.65;58.01;101497.53;5048609;28;20358;-74
2023/06/21 09:30:40;;;;;;;6.85;5.05;;;;;;;25.74;55.88;101496.75;5046811;28;20119;-75
2023/06/21 09:33:10;;;;;;;6.50;4.35;;;;;;;25.83;56.37;101494.25;5046075;28;20051;-75
2023/06/21 09:35:38;;;;;;;6.43;4.47;;;;;;;25.90;54.36;101503.53;5047730;28;20049;-75
2023/06/21 09:38:28;;;;;;;4.90;3.95;;;;;;;25.94;52.94;101506.88;5047315;28;20584;-75
2023/06/21 09:40:55;;;;;;;6.03;4.35;;;;;;;26.00;53.25;101504.47;5048019;28;20885;-74
2023/06/21 09:43:23;;;;;;;6.05;4.50;;;;;;;26.03;53.94;101500.66;5046907;28;20060;-73
2023/06/21 09:46:04;;;;;;;5.22;4.15;;;;;;;26.12;54.19;101507.13;5046369;28;20042;-74
2023/06/21 09:48:34;;;;;;;9.48;4.05;;;;;;;26.24;54.33;101507.94;5045269;28;20096;-74
2023/06/21 09:51:11;;;;;;;9.00;4.60;;;;;;;26.40;51.18;101519.13;5048137;28;20053;-74
2023/06/21 09:53:44;;;;;;;7.45;3.90;;;;;;;26.43;52.80;101504.47;5030604;28;20132;-75
2023/06/21 09:56:19;;;;;;;18.23;5.32;;;;;;;26.56;50.63;101517.75;5045530;28;20529;-74
2023/06/21 09:58:50;;;;;;;7.38;4.53;;;;;;;26.60;50.23;101519.22;5046204;28;20148;-73
2023/06/21 10:01:17;;;;;;;15.38;4.78;;;;;;;26.62;50.22;101526.19;5050013;28;20255;-73
2023/06/21 10:03:47;;;;;;;5.53;4.68;;;;;;;26.61;50.08;101520.94;5043116;28;20548;-73
2023/06/21 10:06:16;;;;;;;11.35;4.47;;;;;;;26.70;49.77;101522.81;5046181;28;20487;-73
2023/06/21 10:08:51;;;;;;;6.65;5.18;;;;;;;26.78;49.81;101528.41;5043487;28;20061;-74
2023/06/21 10:11:20;;;;;;;6.65;4.97;;;;;;;26.79;48.78;101518.47;5046804;28;20140;-74
2023/06/21 10:13:48;;;;;;;7.13;6.13;;;;;;;26.71;49.56;101524.53;5044413;28;20048;-73
2023/06/21 10:16:18;;;;;;;7.18;6.18;;;;;;;26.70;50.08;101517.41;5044568;28;20049;-73
2023/06/21 10:18:49;;;;;;;9.50;5.82;;;;;;;26.86;49.68;101525.03;5043516;28;20049;-74
2023/06/21 10:21:19;;;;;;;8.07;5.97;;;;;;;27.13;48.09;101532.53;5046729;28;20481;-75
2023/06/21 10:23:49;;;;;;;16.23;6.20;;;;;;;27.29;48.52;101523.00;5047391;28;20038;-72
2023/06/21 10:26:19;;;;;;;10.85;5.40;;;;;;;27.23;48.72;101523.56;5045455;28;20041;-74
2023/06/21 10:28:56;;;;;;;5.60;4.28;;;;;;;27.20;46.80;101537.38;5046310;28;20904;-74
2023/06/21 10:31:29;;;;;;;6.55;4.38;;;;;;;27.31;46.23;101536.41;5045821;28;20057;-73
2023/06/21 10:33:56;;;;;;;6.88;5.10;;;;;;;27.26;46.30;101536.84;5044733;28;20049;-73
2023/06/21 10:36:33;;;;;;;8.23;6.10;;;;;;;27.38;46.93;101533.00;5044939;28;20045;-74
2023/06/21 10:39:09;;;;;;;7.07;5.00;;;;;;;27.52;46.27;101539.88;5042737;28;20045;-74
2023/06/21 10:41:38;;;;;;;6.45;5.85;;;;;;;27.54;46.06;101537.88;5042785;28;20517;-73
2023/06/21 10:44:06;;;;;;;8.52;5.35;;;;;;;27.63;46.75;101541.59;5044393;28;20041;-73
2023/06/21 10:46:40;;;;;;;7.28;3.92;;;;;;;27.78;45.31;101541.19;5048355;28;20535;-74
2023/06/21 10:49:08;;;;;;;7.20;5.68;;;;;;;27.89;44.34;101539.19;5052769;28;20073;-74
2023/06/21 10:51:40;;;;;;;10.35;4.97;;;;;;;27.90;45.07;101540.91;5046850;28;20046;-73
2023/06/21 10:54:09;;;;;;;5.97;4.40;;;;;;;27.93;44.33;101547.88;5044666;28;20041;-75
2023/06/21 10:56:38;;;;;;;4.28;3.05;;;;;;;27.94;42.22;101556.84;5042888;28;20045;-75
2023/06/21 10:59:06;;;;;;;3.97;3.17;;;;;;;27.88;42.44;101547.44;5056325;28;20037;-74
2023/06/21 11:01:33;;;;;;;5.72;4.00;;;;;;;27.85;42.25;101545.88;5049756;28;20042;-74
2023/06/21 11:04:00;;;;;;;5.30;4.25;;;;;;;27.83;42.84;101549.72;5053271;28;20046;-73
2023/06/21 11:06:29;;;;;;;8.38;4.25;;;;;;;27.84;43.25;101544.16;5041733;28;20111;-73
2023/06/21 11:09:09;;;;;;;4.90;2.90;;;;;;;28.07;43.83;101551.16;5044827;28;20046;-74
2023/06/21 11:11:40;;;;;;;7.25;3.70;;;;;;;28.22;41.45;101557.84;5028124;28;20053;-73
2023/06/21 11:14:08;;;;;;;7.53;3.00;;;;;;;28.26;40.99;101553.84;5044864;28;20033;-74
2023/06/21 11:16:39;;;;;;;6.95;3.40;;;;;;;28.34;42.31;101551.25;5043870;28;20045;-74
2023/06/21 11:19:10;;;;;;;8.40;3.45;;;;;;;28.45;40.87;101561.06;5043736;28;20191;-75
2023/06/21 11:21:47;;;;;;;5.38;3.22;;;;;;;28.55;41.80;101563.75;5046170;28;20117;-74